Time;durP1;ratioP1;P1;durP2;ratioP2;P2;SDS_P1;SDS_P2;PMS_P1;PMS_P2;Temp;Humidity;BMP_temperature;BMP_pressure;BME280_temperature;BME280_humidity;BME280_pressure;Samples;Min_cycle;Max_cycle;Signal;HPM_P1;HPM_P2
2023/01/21 00:02:14;;;;;;;42.25;24.45;;;;;;;-1.07;88.07;101864.22;7399101;19;20010;-71
2023/01/21 00:04:45;;;;;;;42.03;22.50;;;;;;;-1.08;88.37;101870.19;7397432;19;20026;-71
2023/01/21 00:07:14;;;;;;;40.25;22.92;;;;;;;-1.08;88.16;101880.50;7396575;19;20007;-71
2023/01/21 00:09:42;;;;;;;36.88;22.20;;;;;;;-1.08;88.69;101865.03;7397140;19;20018;-71
2023/01/21 00:12:11;;;;;;;36.95;22.02;;;;;;;-1.06;88.57;101876.25;7399132;19;20506;-71
2023/01/21 00:14:39;;;;;;;44.13;22.23;;;;;;;-1.05;88.49;101880.59;7397056;19;20043;-71
2023/01/21 00:17:08;;;;;;;39.38;23.35;;;;;;;-1.05;88.24;101885.75;7397443;19;20018;-71
2023/01/21 00:19:37;;;;;;;40.78;23.38;;;;;;;-1.06;88.34;101889.16;7399282;19;20026;-71
2023/01/21 00:22:08;;;;;;;39.97;23.52;;;;;;;-1.08;88.23;101886.50;7399182;19;20035;-70
2023/01/21 00:24:36;;;;;;;39.25;22.95;;;;;;;-1.10;87.92;101888.16;7397259;19;20018;-71
2023/01/21 00:27:05;;;;;;;38.00;21.42;;;;;;;-1.11;87.80;101885.50;7398622;19;20018;-71
2023/01/21 00:29:33;;;;;;;37.40;20.92;;;;;;;-1.14;87.78;101891.38;7398604;19;20502;-71
2023/01/21 00:32:02;;;;;;;37.47;22.02;;;;;;;-1.16;87.82;101896.47;7398406;19;20014;-71
2023/01/21 00:34:30;;;;;;;36.38;20.63;;;;;;;-1.18;87.99;101903.25;7396865;19;20019;-71
2023/01/21 00:36:59;;;;;;;39.90;21.63;;;;;;;-1.19;87.78;101909.22;7396114;19;20505;-71
2023/01/21 00:39:30;;;;;;;35.55;19.58;;;;;;;-1.21;87.97;101895.38;7398574;19;20018;-71
2023/01/21 00:41:58;;;;;;;33.22;17.80;;;;;;;-1.21;87.95;101908.25;7398169;19;20031;-72
2023/01/21 00:44:27;;;;;;;30.90;18.45;;;;;;;-1.21;87.79;101912.53;7396574;19;20039;-71
2023/01/21 00:46:55;;;;;;;32.20;17.55;;;;;;;-1.22;87.96;101918.50;7397842;19;20477;-71
2023/01/21 00:49:24;;;;;;;30.40;18.08;;;;;;;-1.22;87.65;101919.38;7398455;19;20035;-71
2023/01/21 00:51:52;;;;;;;31.00;17.67;;;;;;;-1.23;87.26;101925.31;7397654;19;20014;-71
2023/01/21 00:54:21;;;;;;;26.15;16.08;;;;;;;-1.26;87.33;101927.78;7396767;19;20022;-71
2023/01/21 00:56:52;;;;;;;27.20;16.58;;;;;;;-1.28;87.07;101937.13;7396522;19;20010;-71
2023/01/21 00:59:20;;;;;;;30.58;17.80;;;;;;;-1.31;87.27;101934.41;7397749;19;20023;-71
2023/01/21 01:01:49;;;;;;;26.00;15.10;;;;;;;-1.32;87.57;101935.22;7397975;19;20026;-71
2023/01/21 01:04:17;;;;;;;29.38;16.42;;;;;;;-1.32;87.75;101942.94;7396328;19;20027;-71
2023/01/21 01:06:46;;;;;;;29.63;15.45;;;;;;;-1.31;87.79;101944.72;7396787;19;20484;-71
2023/01/21 01:09:20;;;;;;;32.55;15.45;;;;;;;-1.30;87.63;101946.47;7395783;19;20039;-71
2023/01/21 01:11:52;;;;;;;23.63;16.00;;;;;;;-1.31;88.00;101944.72;7397986;19;20027;-72
2023/01/21 01:14:21;;;;;;;25.20;15.27;;;;;;;-1.29;87.60;101949.94;7396078;19;20028;-72
2023/01/21 01:16:49;;;;;;;22.23;15.13;;;;;;;-1.31;87.03;101955.00;7396476;19;20014;-71
2023/01/21 01:19:18;;;;;;;22.83;13.82;;;;;;;-1.34;87.16;101965.16;7397329;19;20035;-71
2023/01/21 01:21:46;;;;;;;25.92;15.07;;;;;;;-1.37;86.91;101965.03;7397150;19;20039;-71
2023/01/21 01:24:15;;;;;;;22.58;14.07;;;;;;;-1.42;86.85;101959.66;7395982;19;20100;-71
2023/01/21 01:26:43;;;;;;;29.42;14.68;;;;;;;-1.45;86.50;101958.63;7397125;19;20015;-71
2023/01/21 01:29:17;;;;;;;29.13;15.88;;;;;;;-1.49;86.98;101961.06;7397108;19;20024;-71
2023/01/21 01:31:45;;;;;;;27.60;15.60;;;;;;;-1.59;86.94;101952.81;7397445;19;20037;-71
2023/01/21 01:34:14;;;;;;;29.50;15.20;;;;;;;-1.56;87.36;101961.56;7395619;19;20022;-71
2023/01/21 01:36:42;;;;;;;26.77;14.63;;;;;;;-1.58;87.41;101968.34;7394968;19;20466;-71
2023/01/21 01:39:10;;;;;;;26.95;15.32;;;;;;;-1.61;87.62;101967.31;7396301;19;20022;-71
2023/01/21 01:41:39;;;;;;;23.88;13.70;;;;;;;-1.64;87.91;101970.63;7395026;19;20078;-71
2023/01/21 01:44:28;;;;;;;28.95;14.35;;;;;;;-1.67;87.84;101976.50;7395360;19;20022;-71
2023/01/21 01:47:01;;;;;;;32.40;15.02;;;;;;;-1.72;88.05;101978.00;7394698;19;20027;-71
2023/01/21 01:49:29;;;;;;;26.95;14.43;;;;;;;-1.71;88.31;101973.72;7396745;19;20014;-71
2023/01/21 01:52:02;;;;;;;30.92;16.40;;;;;;;-1.73;88.54;101968.50;7395998;19;20384;-71
2023/01/21 01:54:40;;;;;;;28.77;14.88;;;;;;;-1.73;88.61;101976.22;7394796;19;20058;-71
2023/01/21 01:57:13;;;;;;;28.20;14.88;;;;;;;-1.71;88.39;101973.72;7395130;19;20430;-71
2023/01/21 01:59:44;;;;;;;26.27;14.48;;;;;;;-1.70;88.40;101980.63;7396492;19;20014;-71
2023/01/21 02:02:18;;;;;;;31.15;16.27;;;;;;;-1.69;88.56;101984.97;7394660;19;20359;-71
2023/01/21 02:04:51;;;;;;;27.52;14.85;;;;;;;-1.66;88.68;101993.69;7394373;19;20107;-71
2023/01/21 02:07:22;;;;;;;35.92;16.20;;;;;;;-1.64;88.65;101992.09;7393382;19;20415;-72
2023/01/21 02:09:50;;;;;;;38.08;17.00;;;;;;;-1.60;88.75;101989.69;7394466;19;20043;-71
2023/01/21 02:12:19;;;;;;;35.95;17.02;;;;;;;-1.58;88.75;101996.66;7395758;19;20032;-71
2023/01/21 02:14:49;;;;;;;29.38;16.85;;;;;;;-1.56;88.98;102000.19;7394662;19;20024;-69
2023/01/21 02:17:36;;;;;;;31.63;16.58;;;;;;;-1.54;88.96;101997.66;7394073;19;20027;-69
2023/01/21 02:20:34;;;;;;;29.02;15.60;;;;;;;-1.56;88.89;101989.88;7395704;19;20032;-69
2023/01/21 02:23:09;;;;;;;35.67;16.27;;;;;;;-1.58;88.90;101999.25;7394034;19;20037;-70
2023/01/21 02:26:14;;;;;;;32.33;15.98;;;;;;;-1.59;88.83;101999.16;7395011;19;20061;-69
2023/01/21 02:29:10;;;;;;;29.45;15.63;;;;;;;-1.57;89.11;102010.41;7393365;19;20506;-69
2023/01/21 02:32:03;;;;;;;28.05;14.02;;;;;;;-1.56;89.21;102009.59;7393755;19;20015;-69
2023/01/21 02:34:45;;;;;;;27.83;14.23;;;;;;;-1.56;89.15;102009.59;7392858;19;20019;-69
2023/01/21 02:37:19;;;;;;;25.85;13.38;;;;;;;-1.58;89.11;102006.06;7392779;19;20473;-70
2023/01/21 02:40:04;;;;;;;27.08;13.77;;;;;;;-1.59;88.90;102010.34;7395545;19;20022;-69
2023/01/21 02:42:42;;;;;;;28.52;12.40;;;;;;;-1.57;89.19;102015.56;7394674;19;20390;-69
2023/01/21 02:45:21;;;;;;;25.65;13.07;;;;;;;-1.58;88.91;102017.25;7393456;19;20019;-69
2023/01/21 02:48:04;;;;;;;24.77;12.85;;;;;;;-1.57;88.90;102015.56;7395045;19;20035;-69
2023/01/21 02:50:37;;;;;;;23.95;12.75;;;;;;;-1.56;89.13;102017.31;7395143;19;20086;-69
2023/01/21 02:53:06;;;;;;;25.40;13.18;;;;;;;-1.57;88.92;102012.97;7393842;19;20485;-69
2023/01/21 02:55:38;;;;;;;26.65;12.93;;;;;;;-1.57;89.07;102010.41;7394617;19;20022;-69
2023/01/21 02:58:10;;;;;;;24.17;13.30;;;;;;;-1.60;89.29;102008.56;7392554;19;20070;-69
2023/01/21 03:00:49;;;;;;;25.25;14.40;;;;;;;-1.66;89.50;102000.56;7392947;19;20014;-69
2023/01/21 03:03:47;;;;;;;26.95;15.02;;;;;;;-1.64;89.69;102007.53;7394050;19;20039;-69
2023/01/21 03:06:39;;;;;;;34.60;15.60;;;;;;;-1.65;89.51;102007.47;7394659;19;20096;-69
2023/01/21 03:09:19;;;;;;;29.63;14.18;;;;;;;-1.65;89.42;102020.34;7391904;19;20023;-69
2023/01/21 03:11:55;;;;;;;29.17;14.90;;;;;;;-1.63;89.63;102018.72;7394589;19;20035;-69
2023/01/21 03:17:18;;;;;;;34.03;14.10;;;;;;;-1.65;89.26;102023.78;7400410;19;20019;-69
2023/01/21 03:19:51;;;;;;;33.28;15.38;;;;;;;-1.64;89.23;102019.53;7401820;19;20022;-69
2023/01/21 03:22:27;;;;;;;32.25;14.98;;;;;;;-1.65;89.10;102028.91;7399059;19;20094;-68
2023/01/21 03:24:59;;;;;;;33.63;15.98;;;;;;;-1.67;89.17;102025.41;7398128;19;20031;-68
2023/01/21 03:27:31;;;;;;;28.90;14.88;;;;;;;-1.67;89.43;102028.00;7401477;19;20018;-68
2023/01/21 03:30:04;;;;;;;33.97;15.40;;;;;;;-1.67;89.29;102022.84;7401006;19;20039;-68
2023/01/21 03:32:36;;;;;;;28.83;15.05;;;;;;;-1.69;89.50;102021.00;7400567;19;20556;-68
2023/01/21 03:35:07;;;;;;;30.52;13.93;;;;;;;-1.66;89.22;102024.56;7398646;19;20018;-68
2023/01/21 03:37:42;;;;;;;32.33;15.13;;;;;;;-1.66;89.36;102018.56;7398950;19;20039;-68
2023/01/21 03:40:17;;;;;;;28.70;14.23;;;;;;;-1.64;89.26;102027.25;7400762;19;20026;-68
2023/01/21 03:42:49;;;;;;;26.73;14.15;;;;;;;-1.64;89.39;102027.25;7398185;19;20044;-69
2023/01/21 03:45:18;;;;;;;27.73;13.75;;;;;;;-1.63;89.22;102029.03;7400924;19;20018;-69
2023/01/21 03:47:52;;;;;;;27.92;14.45;;;;;;;-1.62;89.17;102030.75;7401349;19;20448;-68
2023/01/21 03:50:24;;;;;;;25.65;13.60;;;;;;;-1.64;88.95;102027.25;7397556;19;20485;-68
2023/01/21 03:52:56;;;;;;;26.23;14.00;;;;;;;-1.65;89.00;102022.91;7400305;19;20026;-69
2023/01/21 03:55:25;;;;;;;24.95;12.35;;;;;;;-1.61;89.06;102016.22;7400558;19;20015;-68
2023/01/21 03:57:53;;;;;;;26.67;12.88;;;;;;;-1.58;88.95;102021.50;7398171;19;20489;-69
2023/01/21 04:00:22;;;;;;;25.67;13.18;;;;;;;-1.59;88.88;102015.50;7399702;19;20019;-68
2023/01/21 04:02:50;;;;;;;23.17;12.63;;;;;;;-1.59;88.49;102020.63;7401086;19;20019;-69
2023/01/21 04:05:19;;;;;;;26.48;12.88;;;;;;;-1.58;88.58;102012.13;7400093;19;20027;-69
2023/01/21 04:07:47;;;;;;;24.23;12.23;;;;;;;-1.56;88.54;102019.91;7398772;19;20422;-69
2023/01/21 04:10:19;;;;;;;26.33;13.00;;;;;;;-1.56;88.15;102013.03;7396983;19;20014;-68
2023/01/21 04:12:47;;;;;;;28.42;14.15;;;;;;;-1.53;88.75;102017.47;7399322;19;20022;-69
2023/01/21 04:15:16;;;;;;;27.25;12.80;;;;;;;-1.53;88.45;102017.47;7399099;19;20022;-68
2023/01/21 04:17:44;;;;;;;25.90;13.45;;;;;;;-1.51;88.31;102021.88;7398251;19;20050;-68
2023/01/21 04:20:14;;;;;;;26.52;12.65;;;;;;;-1.48;88.64;102023.72;7398973;19;20481;-68
2023/01/21 04:22:42;;;;;;;27.50;12.60;;;;;;;-1.46;88.57;102021.22;7399104;19;20018;-69
2023/01/21 04:25:11;;;;;;;27.55;12.98;;;;;;;-1.45;88.56;102020.41;7397884;19;20086;-68
2023/01/21 04:27:42;;;;;;;24.50;11.82;;;;;;;-1.45;88.27;102018.72;7399083;19;20015;-68
2023/01/21 04:30:12;;;;;;;24.92;12.40;;;;;;;-1.42;88.33;102020.56;7397124;19;20022;-69
2023/01/21 04:32:40;;;;;;;25.83;12.73;;;;;;;-1.44;88.24;102020.50;7398385;19;20418;-69
2023/01/21 04:35:10;;;;;;;28.05;11.40;;;;;;;-1.44;87.91;102019.59;7398333;19;20517;-68
2023/01/21 04:37:38;;;;;;;23.98;11.45;;;;;;;-1.43;88.19;102017.09;7397873;19;20018;-68
2023/01/21 04:40:08;;;;;;;25.60;13.00;;;;;;;-1.41;88.09;102020.63;7398639;19;20022;-68
2023/01/21 04:42:37;;;;;;;27.77;12.55;;;;;;;-1.42;88.12;102018.84;7398022;19;20032;-68
2023/01/21 04:45:10;;;;;;;27.08;13.05;;;;;;;-1.42;87.89;102007.69;7398453;19;20022;-69
2023/01/21 04:47:42;;;;;;;24.50;12.30;;;;;;;-1.40;88.17;102013.78;7398819;19;20023;-69
2023/01/21 04:50:15;;;;;;;24.38;12.35;;;;;;;-1.39;88.18;102015.53;7398718;19;20032;-68
2023/01/21 04:52:44;;;;;;;24.35;13.48;;;;;;;-1.39;88.12;102020.69;7398118;19;20441;-69
2023/01/21 04:55:13;;;;;;;28.55;13.68;;;;;;;-1.39;87.86;102033.56;7397766;19;20039;-68
2023/01/21 04:57:41;;;;;;;24.80;13.45;;;;;;;-1.38;88.11;102027.63;7397040;19;20018;-69
2023/01/21 05:00:13;;;;;;;25.38;12.55;;;;;;;-1.38;87.86;102031.09;7397967;19;20035;-69
2023/01/21 05:02:42;;;;;;;27.92;13.07;;;;;;;-1.37;87.90;102024.25;7398576;19;20022;-69
2023/01/21 05:05:11;;;;;;;27.08;12.52;;;;;;;-1.36;87.98;102026.00;7397471;19;20091;-68
2023/01/21 05:07:39;;;;;;;27.20;12.27;;;;;;;-1.36;87.89;102028.59;7395640;19;20035;-69
2023/01/21 05:10:08;;;;;;;26.52;11.98;;;;;;;-1.36;87.81;102031.16;7397415;19;20055;-68
2023/01/21 05:12:36;;;;;;;24.95;12.90;;;;;;;-1.35;88.00;102044.09;7397718;19;20485;-69
2023/01/21 05:15:06;;;;;;;22.98;11.40;;;;;;;-1.35;87.77;102045.81;7398176;19;20018;-69
2023/01/21 05:17:37;;;;;;;23.85;11.80;;;;;;;-1.35;87.58;102054.41;7396874;19;20022;-69
2023/01/21 05:20:06;;;;;;;28.58;12.90;;;;;;;-1.34;87.52;102057.84;7397854;19;20039;-68
2023/01/21 05:22:34;;;;;;;27.73;13.68;;;;;;;-1.33;87.99;102059.63;7395054;19;20014;-69
2023/01/21 05:25:03;;;;;;;26.75;12.40;;;;;;;-1.32;87.83;102061.38;7396941;19;20390;-69
2023/01/21 05:27:31;;;;;;;26.92;13.30;;;;;;;-1.34;87.82;102056.16;7395440;19;20023;-69
2023/01/21 05:30:00;;;;;;;24.23;12.63;;;;;;;-1.32;87.91;102058.81;7396627;19;20085;-68
2023/01/21 05:32:28;;;;;;;22.60;10.48;;;;;;;-1.32;87.57;102062.25;7395176;19;20035;-68
2023/01/21 05:34:59;;;;;;;21.77;11.82;;;;;;;-1.31;87.84;102060.59;7394892;19;20019;-69
2023/01/21 05:37:28;;;;;;;24.25;11.95;;;;;;;-1.30;87.89;102064.94;7394176;19;20469;-68
2023/01/21 05:39:56;;;;;;;21.35;11.82;;;;;;;-1.29;87.55;102066.66;7396411;19;20410;-68
2023/01/21 05:42:25;;;;;;;19.15;10.07;;;;;;;-1.28;87.68;102073.59;7395288;19;20085;-68
2023/01/21 05:44:53;;;;;;;19.17;11.07;;;;;;;-1.28;87.67;102062.41;7394777;19;20018;-69
2023/01/21 05:47:22;;;;;;;22.88;11.38;;;;;;;-1.27;87.63;102066.78;7395928;19;20470;-68
2023/01/21 05:49:50;;;;;;;17.90;9.73;;;;;;;-1.26;87.30;102066.84;7397000;19;20014;-68
2023/01/21 05:52:21;;;;;;;17.38;9.55;;;;;;;-1.25;87.27;102072.84;7396164;19;20010;-68
2023/01/21 05:54:50;;;;;;;17.05;9.90;;;;;;;-1.25;87.19;102070.28;7394135;19;20018;-68
2023/01/21 05:57:18;;;;;;;17.45;11.40;;;;;;;-1.25;87.46;102071.19;7395838;19;20018;-68
2023/01/21 05:59:47;;;;;;;18.55;9.80;;;;;;;-1.24;87.18;102070.38;7394254;19;20031;-67
2023/01/21 06:02:15;;;;;;;19.42;10.02;;;;;;;-1.23;87.36;102069.53;7395731;19;20513;-68
2023/01/21 06:04:44;;;;;;;20.67;10.60;;;;;;;-1.21;87.27;102080.81;7394291;19;20047;-68
2023/01/21 06:07:12;;;;;;;17.00;9.70;;;;;;;-1.21;87.36;102077.38;7395803;19;20028;-68
2023/01/21 06:09:43;;;;;;;19.02;10.38;;;;;;;-1.20;87.24;102072.28;7393726;19;20014;-68
2023/01/21 06:12:12;;;;;;;16.65;9.95;;;;;;;-1.20;87.08;102072.28;7395731;19;20022;-68
2023/01/21 06:14:40;;;;;;;16.85;9.35;;;;;;;-1.19;86.91;102073.16;7393658;19;20501;-68
2023/01/21 06:17:09;;;;;;;17.25;10.18;;;;;;;-1.20;87.01;102077.44;7395209;19;20027;-68
2023/01/21 06:19:43;;;;;;;15.45;9.30;;;;;;;-1.19;87.07;102079.22;7393389;19;20015;-67
2023/01/21 06:22:16;;;;;;;16.67;9.38;;;;;;;-1.20;86.70;102081.69;7395666;19;20078;-68
2023/01/21 06:24:47;;;;;;;16.73;9.57;;;;;;;-1.19;86.81;102086.94;7393613;19;20027;-68
2023/01/21 06:27:15;;;;;;;19.10;8.77;;;;;;;-1.19;87.23;102080.88;7395242;19;20014;-66
2023/01/21 06:29:44;;;;;;;15.48;9.18;;;;;;;-1.21;86.76;102075.66;7395141;19;20039;-66
2023/01/21 06:32:13;;;;;;;19.00;9.02;;;;;;;-1.21;86.81;102082.50;7395223;19;20014;-67
2023/01/21 06:34:41;;;;;;;17.50;8.45;;;;;;;-1.22;87.09;102081.63;7393353;19;20032;-67
2023/01/21 06:37:10;;;;;;;18.23;8.50;;;;;;;-1.24;87.21;102080.69;7395000;19;20027;-67
2023/01/21 06:39:39;;;;;;;14.50;8.75;;;;;;;-1.23;87.25;102091.84;7393093;19;20022;-67
2023/01/21 06:42:10;;;;;;;12.82;8.57;;;;;;;-1.22;87.23;102091.03;7393321;19;20019;-67
2023/01/21 06:44:38;;;;;;;15.18;8.85;;;;;;;-1.23;87.23;102097.88;7392937;19;20078;-66
2023/01/21 06:47:07;;;;;;;14.13;8.88;;;;;;;-1.24;87.19;102092.66;7396957;19;20031;-69
2023/01/21 06:49:35;;;;;;;14.80;8.57;;;;;;;-1.22;87.32;102091.03;7399118;19;20018;-69
2023/01/21 06:52:04;;;;;;;15.40;8.80;;;;;;;-1.20;87.59;102091.97;7401900;19;20443;-69
2023/01/21 06:54:33;;;;;;;19.50;10.02;;;;;;;-1.19;87.21;102093.75;7399445;19;20035;-69
2023/01/21 06:57:11;;;;;;;16.08;9.18;;;;;;;-1.19;87.24;102097.22;7401763;19;20035;-69
2023/01/21 06:59:39;;;;;;;18.05;9.85;;;;;;;-1.18;87.05;102092.94;7399854;19;20026;-69
2023/01/21 07:02:08;;;;;;;18.58;10.70;;;;;;;-1.17;87.39;102089.56;7401877;19;20035;-70
2023/01/21 07:04:37;;;;;;;17.67;11.23;;;;;;;-1.15;87.25;102095.66;7398867;19;20431;-69
2023/01/21 07:07:05;;;;;;;19.73;10.05;;;;;;;-1.13;87.56;102083.75;7401405;19;20031;-70
2023/01/21 07:09:34;;;;;;;17.73;9.80;;;;;;;-1.11;87.19;102088.97;7399279;19;20035;-69
2023/01/21 07:12:02;;;;;;;16.15;10.15;;;;;;;-1.10;87.25;102089.06;7401171;19;20018;-70
2023/01/21 07:14:33;;;;;;;16.92;9.43;;;;;;;-1.09;87.21;102095.97;7399336;19;20086;-70
2023/01/21 07:17:02;;;;;;;19.98;10.45;;;;;;;-1.07;87.35;102103.78;7401306;19;20018;-68
2023/01/21 07:19:30;;;;;;;18.98;10.23;;;;;;;-1.06;87.18;102097.78;7399047;19;20018;-69
2023/01/21 07:21:59;;;;;;;17.65;10.45;;;;;;;-1.05;87.32;102108.19;7398326;19;20768;-69
2023/01/21 07:24:28;;;;;;;20.33;9.95;;;;;;;-1.04;87.42;102109.06;7399017;19;20023;-69
2023/01/21 07:26:56;;;;;;;17.27;9.68;;;;;;;-1.02;87.56;102110.91;7401053;19;20031;-69
2023/01/21 07:29:26;;;;;;;21.17;11.43;;;;;;;-1.00;87.38;102105.81;7400732;19;20039;-69
2023/01/21 07:31:57;;;;;;;19.33;10.85;;;;;;;-0.97;87.58;102116.28;7400690;19;20019;-70
2023/01/21 07:34:26;;;;;;;20.85;10.55;;;;;;;-0.95;87.37;102119.81;7398726;19;20026;-69
2023/01/21 07:36:54;;;;;;;23.05;11.43;;;;;;;-0.93;87.48;102114.75;7397772;19;20513;-68
2023/01/21 07:39:23;;;;;;;19.10;11.57;;;;;;;-0.92;87.49;102116.50;7398481;19;20082;-68
2023/01/21 07:41:51;;;;;;;19.95;11.70;;;;;;;-0.91;87.49;102120.84;7400415;19;20035;-69
2023/01/21 07:44:20;;;;;;;23.95;12.95;;;;;;;-0.89;87.25;102119.22;7398135;19;20494;-67
2023/01/21 07:46:48;;;;;;;21.90;11.57;;;;;;;-0.88;87.67;102118.41;7400206;19;20027;-69
2023/01/21 07:49:19;;;;;;;20.90;12.13;;;;;;;-0.86;87.53;102115.09;7399406;19;20018;-68
2023/01/21 07:51:48;;;;;;;23.40;12.50;;;;;;;-0.84;87.73;102118.63;7399804;19;20011;-68
2023/01/21 07:54:17;;;;;;;22.52;12.65;;;;;;;-0.80;87.43;102117.06;7398262;19;20035;-68
2023/01/21 07:56:46;;;;;;;22.05;13.10;;;;;;;-0.76;87.53;102125.84;7399644;19;20010;-69
2023/01/21 07:59:14;;;;;;;24.13;13.02;;;;;;;-0.73;87.23;102126.00;7396618;19;20015;-68
2023/01/21 08:01:43;;;;;;;25.85;12.77;;;;;;;-0.75;86.99;102122.44;7396660;19;20405;-69
2023/01/21 08:04:12;;;;;;;20.63;13.55;;;;;;;-0.70;86.95;102131.28;7398062;19;20074;-69
2023/01/21 08:06:44;;;;;;;22.90;13.90;;;;;;;-0.68;86.72;102125.38;7398731;19;20015;-68
2023/01/21 08:09:18;;;;;;;24.33;13.95;;;;;;;-0.67;86.73;102126.25;7395947;19;20014;-68
2023/01/21 08:11:47;;;;;;;24.20;14.52;;;;;;;-0.67;86.58;102127.16;7399949;19;20430;-72
2023/01/21 08:14:16;;;;;;;25.23;14.05;;;;;;;-0.64;86.59;102126.41;7397361;19;20018;-70
2023/01/21 08:16:44;;;;;;;22.38;14.18;;;;;;;-0.61;86.08;102130.81;7399509;19;20014;-70
2023/01/21 08:19:13;;;;;;;25.35;14.27;;;;;;;-0.60;86.16;102125.72;7397888;19;20031;-69
2023/01/21 08:21:44;;;;;;;21.05;13.65;;;;;;;-0.58;86.25;102131.84;7398928;19;20019;-70
2023/01/21 08:24:12;;;;;;;22.52;13.38;;;;;;;-0.57;85.98;102130.16;7397316;19;20392;-70
2023/01/21 08:26:41;;;;;;;20.00;12.98;;;;;;;-0.56;85.85;102130.22;7396830;19;20015;-69
2023/01/21 08:29:09;;;;;;;25.77;14.50;;;;;;;-0.54;85.96;102128.59;7398930;19;20028;-69
2023/01/21 08:31:38;;;;;;;21.63;14.02;;;;;;;-0.53;85.25;102135.53;7398541;19;20014;-71
2023/01/21 08:34:06;;;;;;;23.30;14.90;;;;;;;-0.51;85.79;102133.00;7397066;19;20019;-69
2023/01/21 08:36:37;;;;;;;21.92;14.93;;;;;;;-0.52;85.18;102129.56;7398694;19;20035;-69
2023/01/21 08:39:08;;;;;;;23.20;14.85;;;;;;;-0.53;84.99;102129.47;7398187;19;20023;-71
2023/01/21 08:41:39;;;;;;;24.60;15.48;;;;;;;-0.52;85.29;102132.16;7400936;19;20027;-70
2023/01/21 08:44:08;;;;;;;26.65;15.13;;;;;;;-0.53;84.78;102140.69;7396583;19;20041;-69
2023/01/21 08:46:36;;;;;;;22.92;14.07;;;;;;;-0.50;85.55;102130.50;7396001;19;20022;-70
2023/01/21 08:49:05;;;;;;;26.48;16.77;;;;;;;-0.47;85.39;102128.88;7398110;19;20078;-70
2023/01/21 08:51:33;;;;;;;25.10;15.75;;;;;;;-0.43;85.40;102141.09;7398536;19;20014;-70
2023/01/21 08:54:02;;;;;;;24.45;15.55;;;;;;;-0.41;85.88;102134.31;7395741;19;20026;-70
2023/01/21 08:56:33;;;;;;;26.00;16.23;;;;;;;-0.38;85.44;102131.88;7397462;19;20431;-70
2023/01/21 08:59:02;;;;;;;24.50;15.27;;;;;;;-0.35;85.29;102137.19;7397333;19;20015;-70
2023/01/21 09:01:30;;;;;;;23.90;15.38;;;;;;;-0.34;84.87;102139.81;7397536;19;20035;-71
2023/01/21 09:04:00;;;;;;;27.70;16.55;;;;;;;-0.35;84.63;102137.19;7396145;19;20018;-70
2023/01/21 09:06:30;;;;;;;28.70;17.25;;;;;;;-0.33;85.09;102132.97;7396923;19;20019;-70
2023/01/21 09:09:00;;;;;;;23.55;14.95;;;;;;;-0.30;84.88;102137.38;7396322;19;20002;-70
2023/01/21 09:11:30;;;;;;;24.30;15.38;;;;;;;-0.28;84.56;102140.91;7397150;19;20019;-67
2023/01/21 09:14:02;;;;;;;25.40;16.25;;;;;;;-0.27;84.57;102133.25;7396007;19;20022;-67
2023/01/21 09:16:32;;;;;;;26.42;16.13;;;;;;;-0.26;83.73;102136.72;7396725;19;20019;-67
2023/01/21 09:19:01;;;;;;;28.85;18.83;;;;;;;-0.23;84.80;102136.84;7396207;19;20034;-67
2023/01/21 09:21:33;;;;;;;27.85;17.30;;;;;;;-0.21;84.50;102140.38;7396831;19;20545;-67
2023/01/21 09:24:02;;;;;;;26.15;17.08;;;;;;;-0.19;84.39;102146.47;7395776;19;20023;-67
2023/01/21 09:26:30;;;;;;;26.33;17.02;;;;;;;-0.19;84.81;102147.38;7396898;19;20108;-68
2023/01/21 09:29:03;;;;;;;29.63;17.48;;;;;;;-0.14;84.47;102157.00;7396380;19;20508;-68
2023/01/21 09:31:32;;;;;;;30.42;16.70;;;;;;;-0.13;84.49;102151.91;7396662;19;20085;-68
2023/01/21 09:34:02;;;;;;;27.38;16.73;;;;;;;-0.10;84.13;102152.06;7394814;19;20031;-67
2023/01/21 09:36:32;;;;;;;30.45;17.27;;;;;;;-0.08;84.46;102158.16;7396175;19;20552;-67
2023/01/21 09:39:02;;;;;;;24.85;16.13;;;;;;;-0.06;84.26;102151.38;7396484;19;20031;-69
2023/01/21 09:41:35;;;;;;;29.95;17.35;;;;;;;-0.03;84.00;102153.22;7396859;19;20014;-67
2023/01/21 09:44:18;;;;;;;28.50;17.08;;;;;;;-0.01;84.39;102156.75;7394873;19;20481;-68
2023/01/21 09:46:52;;;;;;;31.08;17.88;;;;;;;-0.01;83.67;102152.47;7394276;19;20033;-68
2023/01/21 09:49:25;;;;;;;24.35;15.95;;;;;;;0.01;83.52;102149.94;7396463;19;20023;-68
2023/01/21 09:52:01;;;;;;;25.58;16.80;;;;;;;0.04;83.70;102154.38;7394154;19;20481;-66
2023/01/21 09:54:31;;;;;;;27.40;17.58;;;;;;;0.04;83.83;102144.94;7396650;19;20066;-68
2023/01/21 09:57:23;;;;;;;29.55;17.63;;;;;;;0.10;83.76;102150.38;7393982;19;20392;-68
2023/01/21 10:00:08;;;;;;;26.73;18.13;;;;;;;0.12;82.98;102156.47;7394266;19;20481;-68
2023/01/21 10:02:45;;;;;;;25.80;16.67;;;;;;;0.14;83.46;102152.28;7393320;19;20440;-68
2023/01/21 10:05:35;;;;;;;28.38;16.52;;;;;;;0.20;83.49;102155.94;7395960;19;20026;-68
2023/01/21 10:08:13;;;;;;;24.42;16.63;;;;;;;0.22;83.44;102152.59;7395443;19;20017;-68
2023/01/21 10:10:50;;;;;;;27.75;16.63;;;;;;;0.26;83.34;102148.47;7393821;19;20007;-68
2023/01/21 10:13:33;;;;;;;25.92;16.17;;;;;;;0.30;82.95;102148.66;7394751;19;20070;-67
2023/01/21 10:16:13;;;;;;;25.35;15.70;;;;;;;0.32;82.34;102146.13;7394947;19;20509;-67
2023/01/21 10:18:45;;;;;;;25.95;15.40;;;;;;;0.36;82.92;102144.56;7395142;19;20362;-67
2023/01/21 10:21:24;;;;;;;21.90;14.77;;;;;;;0.39;82.87;102145.59;7395376;19;20014;-67
2023/01/21 10:23:56;;;;;;;28.15;15.25;;;;;;;0.40;82.08;102142.16;7392615;19;20026;-67
2023/01/21 10:26:28;;;;;;;25.65;16.58;;;;;;;0.45;82.62;102143.25;7395661;19;20025;-68
2023/01/21 10:28:58;;;;;;;19.80;12.52;;;;;;;0.46;82.40;102141.56;7395678;19;20018;-68
2023/01/21 10:31:31;;;;;;;23.75;13.88;;;;;;;0.47;82.39;102136.47;7395283;19;20023;-67
2023/01/21 10:34:00;;;;;;;26.00;15.43;;;;;;;0.51;82.93;102132.31;7393471;19;20031;-67
2023/01/21 10:36:50;;;;;;;21.95;14.57;;;;;;;0.54;82.22;102139.31;7393051;19;20070;-67
2023/01/21 10:39:28;;;;;;;22.73;13.88;;;;;;;0.56;81.91;102135.09;7394587;19;20070;-68
2023/01/21 10:42:11;;;;;;;20.38;13.40;;;;;;;0.60;82.39;102131.81;7392915;19;20427;-67
2023/01/21 10:44:47;;;;;;;23.40;14.63;;;;;;;0.63;81.54;102129.34;7392347;19;20018;-67
2023/01/21 10:47:28;;;;;;;22.52;13.38;;;;;;;0.65;81.57;102119.97;7394965;19;20030;-68
2023/01/21 10:50:04;;;;;;;20.90;12.98;;;;;;;0.64;82.06;102123.34;7394808;19;20035;-67
2023/01/21 10:52:40;;;;;;;23.00;12.73;;;;;;;0.66;81.33;102116.56;7394124;19;20019;-68
2023/01/21 10:55:24;;;;;;;19.00;12.27;;;;;;;0.68;81.05;102121.78;7392142;19;20018;-67
2023/01/21 10:58:00;;;;;;;16.80;11.27;;;;;;;0.69;81.35;102119.25;7394118;19;20031;-68
2023/01/21 11:00:33;;;;;;;19.55;12.65;;;;;;;0.66;80.66;102108.81;7393013;19;20018;-68
2023/01/21 11:03:16;;;;;;;22.80;12.30;;;;;;;0.69;80.48;102114.09;7394024;19;20036;-68
2023/01/21 11:05:45;;;;;;;22.42;12.85;;;;;;;0.74;81.13;102101.38;7394662;19;20018;-69
2023/01/21 11:08:21;;;;;;;18.23;10.95;;;;;;;0.75;80.35;102110.91;7391732;19;20505;-67
2023/01/21 11:10:54;;;;;;;34.25;20.17;;;;;;;0.77;81.47;102098.91;7391886;19;20258;-68
2023/01/21 11:13:23;;;;;;;18.80;11.15;;;;;;;0.80;80.96;102099.91;7393350;19;20019;-68
2023/01/21 11:15:54;;;;;;;22.77;11.23;;;;;;;0.84;80.44;102097.47;7393596;19;20426;-68
2023/01/21 11:18:34;;;;;;;17.73;11.15;;;;;;;0.85;80.37;102091.47;7391522;19;20485;-69
2023/01/21 11:21:05;;;;;;;24.48;12.60;;;;;;;0.87;80.53;102090.69;7391589;19;20485;-68
2023/01/21 11:23:37;;;;;;;24.23;12.90;;;;;;;0.91;80.82;102091.69;7392360;19;20018;-68
2023/01/21 11:26:08;;;;;;;21.60;11.18;;;;;;;0.95;80.84;102088.44;7392177;19;20019;-68
2023/01/21 11:28:36;;;;;;;19.30;11.52;;;;;;;0.97;79.61;102087.69;7394019;19;20027;-68
2023/01/21 11:31:16;;;;;;;17.23;11.18;;;;;;;1.02;80.30;102074.03;7392862;19;20040;-67
2023/01/21 11:33:48;;;;;;;19.13;10.40;;;;;;;1.04;78.80;102078.44;7392555;19;20022;-67
2023/01/21 11:36:18;;;;;;;18.27;10.73;;;;;;;1.07;79.63;102078.56;7396388;19;20019;-66